Aérodrome :
LOGIN :

S'inscrire | Disclaimer

   EN    FR    IT 

 










Légende :    VFR   VFR Marginal   IFR   IFR Intensif   IFR Très Intensif
Visi : 
Plafond : 
>= 8 km
>= 3000ft
5 à 8 km
1000 à 3000 ft
1500m à 5 km
500 à 1000 ft
800 à 1500m
200 à 500 ft
< 800m
< 200 ft
Symboles :   Orages  Brouillard  Fortes neiges  Fortes précipitations  Vent > 20 kt
SIGMETs :   Divers  Orages  Givrage  Turbulence  Onde Orograph.  Cendres Volcan.






- Altitude de l'aérodrome : 370 ft


EBBE - Beauvechain AB

DERNIER METAR :
  • 252125Z AUTO 19009KT 9999 -RA SCT038/// BKN048/// 10/09 Q1001 BLU

METARs EXPIRÉS :
  • 252114Z AUTO 19011KT 9999 -RA OVC000/// 10/09 Q1001 RED
  • 252055Z AUTO 19009KT 9999 FEW049/// BKN130/// BKN220/// 10/08 Q1001 BLU
  • 252025Z AUTO 19008KT 9999 FEW042/// SCT110/// BKN230/// 10/08 Q1001 BLU
  • 251955Z AUTO 19008KT 9999 FEW043/// SCT220/// 10/08 Q1001 BLU
  • 251925Z AUTO 18007KT 9999 FEW130/// BKN240/// 10/08 Q1001 BLU
  • 251855Z AUTO 19009KT 9999 FEW080/// BKN190/// 10/09 Q1001 BLU

Prévision TAF périmée.



MET'MAP, la Météo Aéronautique d'un coup d'oeil ! - Copyright ORBIFLY Décembre 2007 - Disclaimer

ORBIFLY MET'MAP TEAM :

Programmation & Développement : Alexandra Zaïnal
Sur une idée originale de : Baudouin d'Aumeries
Assistance à la programmation : Marc-Olivier Méhu
Soutien technique & logistique : Manuel Goepfert

Contact : metmap@orbifly.com




SOURCES & CREDITS :

   NOAA